Aérodrome :
LOGIN :

S'inscrire | Disclaimer

   EN    FR    IT 

 










Légende :    VFR   VFR Marginal   IFR   IFR Intensif   IFR Très Intensif
Visi : 
Plafond : 
>= 8 km
>= 3000ft
5 à 8 km
1000 à 3000 ft
1500m à 5 km
500 à 1000 ft
800 à 1500m
200 à 500 ft
< 800m
< 200 ft
Symboles :   Orages  Brouillard  Fortes neiges  Fortes précipitations  Vent > 20 kt
SIGMETs :   Divers  Orages  Givrage  Turbulence  Onde Orograph.  Cendres Volcan.







- Altitude de l'aérodrome : 242 ft
- Code IATA : DUB


EIDW - Dublin

DERNIER METAR :
  • 221400Z 27013KT 9999 FEW012 SCT120 03/01 Q0999 NOSIG

METARs EXPIRÉS :
  • 221330Z 26011KT 9999 SCT012 SCT018 04/01 Q0999 NOSIG
  • 221300Z 26012KT 220V280 9999 FEW010 03/00 Q1000 NOSIG
  • 221230Z 26015KT 9999 FEW010 03/01 Q0999 NOSIG
  • 221200Z 27015KT 9999 FEW010 SCT014 03/01 Q1000 NOSIG
  • 221130Z 26015KT 9999 FEW010 SCT014 03/01 Q1000 NOSIG

TAF TAF EIDW
Valide du 22 à 12h jusqu'au 23 à 12h UTC


221100Z 2212/2312 26014KT 9999 FEW010 SCT040
TEMPO 2212/2214 BKN012
PROB40
TEMPO 2212/2216 27018G28KT
PROB30
TEMPO 2302/2309 4000 BR
Pas de NOTAMs connus pour ce terrain.
1 SIGMET publié pour la FIR Shannon (EISN) :
 
Turbulence forte
EISN SIGMET 05 VALID 221100/221500 EINN
EISN SHANNON FIR/UIR SEV TURB FCST E OF LINE N5448 W00856 - N5144 W00639 FL160/400 MOV E 15KT NC=



MET'MAP, la Météo Aéronautique d'un coup d'oeil ! - Copyright ORBIFLY Décembre 2007 - Disclaimer

ORBIFLY MET'MAP TEAM :

Programmation & Développement : Alexandra Zaïnal
Conception & Développement : Baudouin d'Aumeries
Co-Programmation & Développement : Marc-Olivier Méhu
Soutien technique & logistique : Manuel Goepfert

Contact : metmap@orbifly.com




SOURCES & CREDITS :

   NOAA